»·PEaware :: SKY716 KCLM-KFHR

SKY716 :: KCLM-KFHR

FLIGHT INFORMATION

Flight Status: Arrived
Operator:
Sky High Charters
More flights by this operator :: More flights under this callsign
Pilot: Martin A. (6413)
Aircraft: BEECH AIRCRAFT SUPER KING AIR 350
(B350)
More flights by this aircraft type
Origin: KCLM Fairchild Intl
United States
Destination: KFHR Friday Harbor
United States
More flights between these airports :: More routes between these airports
Route: WATTR7 WATTR
File this flight plan on PilotEdge
Remarks: SCENARIO 3
Altitude:
(Current/Filed)
5,000ft
Speed:
(Current/Filed)
215kts
Departed: 21-Sep-19 07:56 AM
Arrived: 21-Sep-19 08:22 AM
Distance/Time
Traveled:
31nm/0:25
Distance/Time
To Go:
Arrived

Flight Plot

Page will automatically refresh every two minutes.

Flight plan parsing failed; only flown route is shown


Map Options




Map Legend


Flown Route
Filed Route
Departure Airport
Arrival Airport
Navaid (VOR, NDB)
Fix

Horizontal Profiles

Position Reports

Time Latitude Longitude Heading Altitude Ground
Speed
21-Sep-19 07:44 48.117078 -123.500572 104 270ft 0kts
21-Sep-19 07:45 48.117078 -123.500572 104 270ft 0kts
21-Sep-19 07:46 48.117078 -123.500571 104 270ft 0kts
21-Sep-19 07:47 48.117078 -123.500572 104 270ft 0kts
21-Sep-19 07:48 48.117078 -123.500572 104 270ft 0kts
21-Sep-19 07:49 48.117078 -123.500572 104 270ft 0kts
21-Sep-19 07:50 48.117078 -123.500572 104 270ft 0kts
21-Sep-19 07:51 48.117072 -123.500434 76 270ft 4kts
21-Sep-19 07:52 48.117489 -123.497559 106 271ft 12kts
21-Sep-19 07:53 48.116780 -123.491453 105 288ft 15kts
21-Sep-19 07:54 48.115988 -123.486773 76 299ft 2kts
21-Sep-19 07:55 48.117799 -123.493061 283 282ft 103kts
21-Sep-19 07:56 48.139425 -123.536098 347 1718ft 173kts
21-Sep-19 07:57 48.160359 -123.491255 104 3844ft 163kts
21-Sep-19 07:58 48.151657 -123.419086 89 5020ft 209kts
21-Sep-19 07:59 48.149705 -123.318958 94 4974ft 256kts
21-Sep-19 08:00 48.148138 -123.214520 91 4966ft 246kts
21-Sep-19 08:01 48.145832 -123.114019 91 4968ft 242kts
21-Sep-19 08:02 48.142994 -123.013856 90 4982ft 239kts
21-Sep-19 08:03 48.178108 -122.947966 350 4996ft 234kts
21-Sep-19 08:04 48.242592 -122.964851 349 5002ft 233kts
21-Sep-19 08:05 48.305739 -122.980184 355 4993ft 227kts
21-Sep-19 08:06 48.368028 -122.992197 353 4989ft 224kts
21-Sep-19 08:07 48.429952 -123.004020 352 4983ft 223kts
21-Sep-19 08:08 48.487205 -123.016662 349 4966ft 193kts
21-Sep-19 08:09 48.536176 -123.029384 354 4954ft 164kts
21-Sep-19 08:10 48.560952 -122.996410 124 4983ft 170kts
21-Sep-19 08:11 48.520541 -123.006755 227 4972ft 172kts
21-Sep-19 08:12 48.473901 -123.020141 180 4465ft 190kts
21-Sep-19 08:13 48.417866 -123.019340 175 3047ft 209kts
21-Sep-19 08:14 48.378284 -122.963683 128 2259ft 181kts
21-Sep-19 08:15 48.346090 -122.958293 263 2277ft 135kts
21-Sep-19 08:16 48.362708 -123.005247 305 2318ft 140kts
21-Sep-19 08:17 48.400096 -123.019974 354 2025ft 145kts
21-Sep-19 08:18 48.437992 -123.022496 358 1211ft 127kts
21-Sep-19 08:19 48.472451 -123.023696 358 906ft 131kts
21-Sep-19 08:20 48.506975 -123.023338 357 339ft 120kts
21-Sep-19 08:21 48.526549 -123.025510 258 117ft 8kts
21-Sep-19 08:22 48.525005 -123.025766 120 114ft 0kts
21-Sep-19 08:23 48.525005 -123.025766 120 114ft 0kts
21-Sep-19 08:24 48.525005 -123.025766 120 114ft 0kts
21-Sep-19 08:25 48.525005 -123.025766 120 114ft 0kts
21-Sep-19 08:26 48.525005 -123.025766 120 114ft 0kts
21-Sep-19 08:27 48.525005 -123.025766 120 114ft 0kts
21-Sep-19 08:28 48.525005 -123.025766 120 114ft 0kts
21-Sep-19 08:29 48.525005 -123.025766 120 114ft 0kts
21-Sep-19 08:30 48.525005 -123.025766 120 114ft 0kts
21-Sep-19 08:31 48.525005 -123.025766 120 114ft 0kts
21-Sep-19 08:32 48.525005 -123.025766 120 114ft 0kts
21-Sep-19 08:33 48.525005 -123.025766 120 114ft 0kts
21-Sep-19 08:34 48.525005 -123.025766 120 114ft 0kts
21-Sep-19 08:35 48.525005 -123.025766 120 114ft 0kts

Navigation Log

Ident Type
Flight plan parsing failed, navigation log unavailable